sensor_id;sensor_type;location;lat;lon;timestamp;P1;durP1;ratioP1;P2;durP2;ratioP2
47545;SDS011;50104;52.002;4.688;2022-07-23T00:01:43;3.33;;;3.03;;
47545;SDS011;50104;52.002;4.688;2022-07-23T00:06:43;4.10;;;3.00;;
47545;SDS011;50104;52.002;4.688;2022-07-23T00:11:44;4.57;;;2.90;;
47545;SDS011;50104;52.002;4.688;2022-07-23T00:16:45;6.32;;;3.28;;
47545;SDS011;50104;52.002;4.688;2022-07-23T00:21:46;5.50;;;3.58;;
47545;SDS011;50104;52.002;4.688;2022-07-23T00:26:46;5.65;;;3.47;;
47545;SDS011;50104;52.002;4.688;2022-07-23T00:31:47;3.90;;;3.03;;
47545;SDS011;50104;52.002;4.688;2022-07-23T00:36:48;6.95;;;3.65;;
47545;SDS011;50104;52.002;4.688;2022-07-23T00:41:51;4.72;;;3.75;;
47545;SDS011;50104;52.002;4.688;2022-07-23T00:46:53;4.20;;;3.35;;
47545;SDS011;50104;52.002;4.688;2022-07-23T00:51:57;7.00;;;3.72;;
47545;SDS011;50104;52.002;4.688;2022-07-23T00:57:01;6.95;;;4.78;;
47545;SDS011;50104;52.002;4.688;2022-07-23T01:02:03;4.72;;;3.33;;
47545;SDS011;50104;52.002;4.688;2022-07-23T01:07:04;6.78;;;3.83;;
47545;SDS011;50104;52.002;4.688;2022-07-23T01:12:05;5.40;;;3.97;;
47545;SDS011;50104;52.002;4.688;2022-07-23T01:17:07;7.43;;;3.78;;
47545;SDS011;50104;52.002;4.688;2022-07-23T01:22:08;4.63;;;3.90;;
47545;SDS011;50104;52.002;4.688;2022-07-23T01:27:10;5.13;;;4.13;;
47545;SDS011;50104;52.002;4.688;2022-07-23T01:32:12;4.88;;;4.03;;
47545;SDS011;50104;52.002;4.688;2022-07-23T01:37:13;4.95;;;4.30;;
47545;SDS011;50104;52.002;4.688;2022-07-23T01:42:14;6.35;;;4.22;;
47545;SDS011;50104;52.002;4.688;2022-07-23T01:47:15;8.40;;;4.30;;
47545;SDS011;50104;52.002;4.688;2022-07-23T01:52:16;7.82;;;4.65;;
47545;SDS011;50104;52.002;4.688;2022-07-23T01:57:16;7.38;;;4.88;;
47545;SDS011;50104;52.002;4.688;2022-07-23T02:02:17;7.50;;;4.50;;
47545;SDS011;50104;52.002;4.688;2022-07-23T02:07:18;6.25;;;4.70;;
47545;SDS011;50104;52.002;4.688;2022-07-23T02:12:19;6.78;;;5.43;;
47545;SDS011;50104;52.002;4.688;2022-07-23T02:17:20;8.02;;;5.20;;
47545;SDS011;50104;52.002;4.688;2022-07-23T02:22:20;5.35;;;4.85;;
47545;SDS011;50104;52.002;4.688;2022-07-23T02:27:21;9.10;;;5.03;;
47545;SDS011;50104;52.002;4.688;2022-07-23T02:32:23;8.00;;;5.57;;
47545;SDS011;50104;52.002;4.688;2022-07-23T02:37:25;7.65;;;5.18;;
47545;SDS011;50104;52.002;4.688;2022-07-23T02:42:25;9.52;;;5.03;;
47545;SDS011;50104;52.002;4.688;2022-07-23T02:47:27;9.75;;;5.22;;
47545;SDS011;50104;52.002;4.688;2022-07-23T02:52:27;6.15;;;5.00;;
47545;SDS011;50104;52.002;4.688;2022-07-23T02:57:28;6.60;;;5.15;;
47545;SDS011;50104;52.002;4.688;2022-07-23T03:02:29;7.15;;;6.07;;
47545;SDS011;50104;52.002;4.688;2022-07-23T03:07:30;6.75;;;4.97;;
47545;SDS011;50104;52.002;4.688;2022-07-23T03:12:30;7.75;;;6.05;;
47545;SDS011;50104;52.002;4.688;2022-07-23T03:17:31;7.55;;;5.85;;
47545;SDS011;50104;52.002;4.688;2022-07-23T03:22:32;7.68;;;4.57;;
47545;SDS011;50104;52.002;4.688;2022-07-23T03:27:33;7.63;;;5.10;;
47545;SDS011;50104;52.002;4.688;2022-07-23T03:32:34;6.72;;;4.78;;
47545;SDS011;50104;52.002;4.688;2022-07-23T03:37:35;5.38;;;4.88;;
47545;SDS011;50104;52.002;4.688;2022-07-23T03:42:36;7.25;;;4.72;;
47545;SDS011;50104;52.002;4.688;2022-07-23T03:47:37;9.82;;;4.90;;
47545;SDS011;50104;52.002;4.688;2022-07-23T03:52:39;6.22;;;5.28;;
47545;SDS011;50104;52.002;4.688;2022-07-23T03:57:40;6.53;;;4.85;;
47545;SDS011;50104;52.002;4.688;2022-07-23T04:02:40;6.05;;;4.82;;
47545;SDS011;50104;52.002;4.688;2022-07-23T04:07:41;5.20;;;4.65;;
47545;SDS011;50104;52.002;4.688;2022-07-23T04:12:42;7.50;;;5.18;;
47545;SDS011;50104;52.002;4.688;2022-07-23T04:17:43;5.80;;;4.63;;
47545;SDS011;50104;52.002;4.688;2022-07-23T04:22:45;6.20;;;4.90;;
47545;SDS011;50104;52.002;4.688;2022-07-23T04:27:45;7.10;;;5.43;;
47545;SDS011;50104;52.002;4.688;2022-07-23T04:32:46;6.63;;;5.20;;
47545;SDS011;50104;52.002;4.688;2022-07-23T04:37:47;5.22;;;4.50;;
47545;SDS011;50104;52.002;4.688;2022-07-23T04:42:48;12.20;;;7.35;;
47545;SDS011;50104;52.002;4.688;2022-07-23T04:47:49;13.77;;;7.70;;
47545;SDS011;50104;52.002;4.688;2022-07-23T04:58:12;8.65;;;5.20;;
47545;SDS011;50104;52.002;4.688;2022-07-23T05:03:13;6.38;;;5.13;;
47545;SDS011;50104;52.002;4.688;2022-07-23T05:08:14;8.43;;;5.20;;
47545;SDS011;50104;52.002;4.688;2022-07-23T05:13:15;7.22;;;5.13;;
47545;SDS011;50104;52.002;4.688;2022-07-23T05:18:16;6.63;;;4.35;;
47545;SDS011;50104;52.002;4.688;2022-07-23T05:23:17;10.02;;;4.57;;
47545;SDS011;50104;52.002;4.688;2022-07-23T05:28:18;9.80;;;6.53;;
47545;SDS011;50104;52.002;4.688;2022-07-23T05:33:19;9.52;;;4.85;;
47545;SDS011;50104;52.002;4.688;2022-07-23T05:38:20;6.78;;;3.65;;
47545;SDS011;50104;52.002;4.688;2022-07-23T05:43:21;6.22;;;3.55;;
47545;SDS011;50104;52.002;4.688;2022-07-23T05:48:22;5.60;;;3.05;;
47545;SDS011;50104;52.002;4.688;2022-07-23T05:53:23;3.30;;;2.67;;
47545;SDS011;50104;52.002;4.688;2022-07-23T05:58:23;3.30;;;2.88;;
47545;SDS011;50104;52.002;4.688;2022-07-23T06:03:24;4.93;;;2.58;;
47545;SDS011;50104;52.002;4.688;2022-07-23T06:08:25;4.68;;;2.53;;
47545;SDS011;50104;52.002;4.688;2022-07-23T06:13:26;4.30;;;2.58;;
47545;SDS011;50104;52.002;4.688;2022-07-23T06:18:27;4.68;;;3.33;;
47545;SDS011;50104;52.002;4.688;2022-07-23T06:23:28;6.43;;;2.80;;
47545;SDS011;50104;52.002;4.688;2022-07-23T06:28:30;3.63;;;2.67;;
47545;SDS011;50104;52.002;4.688;2022-07-23T06:33:31;3.38;;;2.20;;
47545;SDS011;50104;52.002;4.688;2022-07-23T06:38:31;6.95;;;2.40;;
47545;SDS011;50104;52.002;4.688;2022-07-23T06:43:32;4.18;;;2.83;;
47545;SDS011;50104;52.002;4.688;2022-07-23T06:48:33;4.82;;;3.25;;
47545;SDS011;50104;52.002;4.688;2022-07-23T06:53:35;4.05;;;2.30;;
47545;SDS011;50104;52.002;4.688;2022-07-23T06:58:36;3.38;;;1.98;;
47545;SDS011;50104;52.002;4.688;2022-07-23T07:03:37;4.93;;;2.55;;
47545;SDS011;50104;52.002;4.688;2022-07-23T07:08:38;1.92;;;1.48;;
47545;SDS011;50104;52.002;4.688;2022-07-23T07:13:39;2.17;;;1.80;;
47545;SDS011;50104;52.002;4.688;2022-07-23T07:18:40;1.60;;;1.50;;
47545;SDS011;50104;52.002;4.688;2022-07-23T07:23:40;2.15;;;1.33;;
47545;SDS011;50104;52.002;4.688;2022-07-23T07:28:41;2.25;;;1.60;;
47545;SDS011;50104;52.002;4.688;2022-07-23T07:33:42;6.10;;;1.50;;
47545;SDS011;50104;52.002;4.688;2022-07-23T07:38:43;3.30;;;1.67;;
47545;SDS011;50104;52.002;4.688;2022-07-23T07:43:44;5.30;;;2.00;;
47545;SDS011;50104;52.002;4.688;2022-07-23T07:48:45;2.25;;;1.80;;
47545;SDS011;50104;52.002;4.688;2022-07-23T07:53:46;4.15;;;1.80;;
47545;SDS011;50104;52.002;4.688;2022-07-23T07:58:46;2.42;;;2.08;;
47545;SDS011;50104;52.002;4.688;2022-07-23T08:03:47;4.63;;;1.80;;
47545;SDS011;50104;52.002;4.688;2022-07-23T08:08:48;4.20;;;1.80;;
47545;SDS011;50104;52.002;4.688;2022-07-23T08:13:49;4.70;;;1.98;;
47545;SDS011;50104;52.002;4.688;2022-07-23T08:18:50;3.20;;;1.70;;
47545;SDS011;50104;52.002;4.688;2022-07-23T08:23:50;5.60;;;1.85;;
47545;SDS011;50104;52.002;4.688;2022-07-23T08:28:51;2.53;;;1.70;;
47545;SDS011;50104;52.002;4.688;2022-07-23T08:33:52;3.40;;;2.22;;
47545;SDS011;50104;52.002;4.688;2022-07-23T08:38:54;2.60;;;1.85;;
47545;SDS011;50104;52.002;4.688;2022-07-23T08:43:54;2.80;;;1.55;;
47545;SDS011;50104;52.002;4.688;2022-07-23T08:48:56;2.63;;;1.77;;
47545;SDS011;50104;52.002;4.688;2022-07-23T08:53:57;6.70;;;2.00;;
47545;SDS011;50104;52.002;4.688;2022-07-23T08:58:59;3.45;;;1.67;;
47545;SDS011;50104;52.002;4.688;2022-07-23T09:04:00;4.40;;;2.00;;
47545;SDS011;50104;52.002;4.688;2022-07-23T09:09:15;3.83;;;1.92;;
47545;SDS011;50104;52.002;4.688;2022-07-23T09:14:35;6.28;;;1.73;;
47545;SDS011;50104;52.002;4.688;2022-07-23T09:19:47;3.03;;;1.92;;
47545;SDS011;50104;52.002;4.688;2022-07-23T09:25:07;2.97;;;1.90;;
47545;SDS011;50104;52.002;4.688;2022-07-23T09:30:12;1.55;;;1.45;;
47545;SDS011;50104;52.002;4.688;2022-07-23T09:35:13;3.95;;;1.83;;
47545;SDS011;50104;52.002;4.688;2022-07-23T09:40:14;3.47;;;2.28;;
47545;SDS011;50104;52.002;4.688;2022-07-23T09:45:17;6.82;;;2.10;;
47545;SDS011;50104;52.002;4.688;2022-07-23T09:50:19;4.70;;;2.35;;
47545;SDS011;50104;52.002;4.688;2022-07-23T09:55:21;5.18;;;1.70;;
47545;SDS011;50104;52.002;4.688;2022-07-23T10:00:39;3.33;;;2.08;;
47545;SDS011;50104;52.002;4.688;2022-07-23T10:05:43;5.32;;;2.15;;
47545;SDS011;50104;52.002;4.688;2022-07-23T10:10:48;3.45;;;2.22;;
47545;SDS011;50104;52.002;4.688;2022-07-23T10:15:50;3.40;;;2.13;;
47545;SDS011;50104;52.002;4.688;2022-07-23T10:20:51;4.78;;;2.40;;
47545;SDS011;50104;52.002;4.688;2022-07-23T10:26:40;4.90;;;2.10;;
47545;SDS011;50104;52.002;4.688;2022-07-23T10:42:07;3.67;;;2.42;;
47545;SDS011;50104;52.002;4.688;2022-07-23T10:47:27;7.50;;;2.83;;
47545;SDS011;50104;52.002;4.688;2022-07-23T10:52:35;3.97;;;2.40;;
47545;SDS011;50104;52.002;4.688;2022-07-23T10:57:47;2.72;;;2.05;;
47545;SDS011;50104;52.002;4.688;2022-07-23T11:02:50;7.65;;;2.35;;
47545;SDS011;50104;52.002;4.688;2022-07-23T11:39:46;2.72;;;2.50;;
47545;SDS011;50104;52.002;4.688;2022-07-23T11:44:47;3.67;;;2.50;;
47545;SDS011;50104;52.002;4.688;2022-07-23T11:49:52;3.47;;;2.88;;
47545;SDS011;50104;52.002;4.688;2022-07-23T11:55:00;3.05;;;2.13;;
47545;SDS011;50104;52.002;4.688;2022-07-23T12:05:24;5.20;;;2.28;;
47545;SDS011;50104;52.002;4.688;2022-07-23T12:10:41;4.32;;;2.10;;
47545;SDS011;50104;52.002;4.688;2022-07-23T12:15:48;3.42;;;2.70;;
47545;SDS011;50104;52.002;4.688;2022-07-23T12:20:57;5.15;;;2.47;;
47545;SDS011;50104;52.002;4.688;2022-07-23T12:26:04;4.40;;;2.40;;
47545;SDS011;50104;52.002;4.688;2022-07-23T12:31:07;2.30;;;2.10;;
47545;SDS011;50104;52.002;4.688;2022-07-23T12:36:08;4.00;;;2.10;;
47545;SDS011;50104;52.002;4.688;2022-07-23T12:41:11;5.78;;;2.78;;
47545;SDS011;50104;52.002;4.688;2022-07-23T12:46:16;2.90;;;2.10;;
47545;SDS011;50104;52.002;4.688;2022-07-23T12:51:28;2.42;;;2.10;;
47545;SDS011;50104;52.002;4.688;2022-07-23T12:56:36;3.47;;;2.13;;
47545;SDS011;50104;52.002;4.688;2022-07-23T13:01:41;2.38;;;2.17;;
47545;SDS011;50104;52.002;4.688;2022-07-23T13:06:58;2.35;;;2.15;;
47545;SDS011;50104;52.002;4.688;2022-07-23T13:12:03;2.97;;;1.98;;
47545;SDS011;50104;52.002;4.688;2022-07-23T13:17:04;3.40;;;2.05;;
47545;SDS011;50104;52.002;4.688;2022-07-23T13:22:05;4.18;;;2.78;;
47545;SDS011;50104;52.002;4.688;2022-07-23T13:27:06;2.95;;;2.50;;
47545;SDS011;50104;52.002;4.688;2022-07-23T13:32:08;2.50;;;2.20;;
47545;SDS011;50104;52.002;4.688;2022-07-23T13:37:08;2.25;;;2.00;;
47545;SDS011;50104;52.002;4.688;2022-07-23T13:42:09;4.90;;;2.63;;
47545;SDS011;50104;52.002;4.688;2022-07-23T13:47:10;3.20;;;2.72;;
47545;SDS011;50104;52.002;4.688;2022-07-23T13:52:11;2.72;;;2.38;;
47545;SDS011;50104;52.002;4.688;2022-07-23T13:57:12;3.38;;;2.40;;
47545;SDS011;50104;52.002;4.688;2022-07-23T14:02:13;4.38;;;2.90;;
47545;SDS011;50104;52.002;4.688;2022-07-23T14:07:17;5.10;;;2.22;;
47545;SDS011;50104;52.002;4.688;2022-07-23T14:12:18;3.30;;;2.90;;
47545;SDS011;50104;52.002;4.688;2022-07-23T14:17:19;2.75;;;1.98;;
47545;SDS011;50104;52.002;4.688;2022-07-23T14:22:20;2.97;;;1.70;;
47545;SDS011;50104;52.002;4.688;2022-07-23T14:27:22;2.95;;;2.00;;
47545;SDS011;50104;52.002;4.688;2022-07-23T14:32:23;3.15;;;2.10;;
47545;SDS011;50104;52.002;4.688;2022-07-23T14:37:24;3.25;;;1.90;;
47545;SDS011;50104;52.002;4.688;2022-07-23T14:42:25;2.95;;;2.33;;
47545;SDS011;50104;52.002;4.688;2022-07-23T14:47:26;3.20;;;2.42;;
47545;SDS011;50104;52.002;4.688;2022-07-23T14:52:27;2.65;;;2.45;;
47545;SDS011;50104;52.002;4.688;2022-07-23T14:57:28;3.22;;;2.92;;
47545;SDS011;50104;52.002;4.688;2022-07-23T15:02:29;3.80;;;2.25;;
47545;SDS011;50104;52.002;4.688;2022-07-23T15:07:30;2.53;;;2.15;;
47545;SDS011;50104;52.002;4.688;2022-07-23T15:12:31;3.17;;;2.05;;
47545;SDS011;50104;52.002;4.688;2022-07-23T15:17:32;4.70;;;2.90;;
47545;SDS011;50104;52.002;4.688;2022-07-23T15:22:33;29.45;;;26.65;;
47545;SDS011;50104;52.002;4.688;2022-07-23T15:27:34;51.00;;;46.50;;
47545;SDS011;50104;52.002;4.688;2022-07-23T15:32:35;71.57;;;64.95;;
47545;SDS011;50104;52.002;4.688;2022-07-23T15:37:35;16.27;;;14.70;;
47545;SDS011;50104;52.002;4.688;2022-07-23T15:42:36;5.25;;;3.28;;
47545;SDS011;50104;52.002;4.688;2022-07-23T15:47:37;6.63;;;5.80;;
47545;SDS011;50104;52.002;4.688;2022-07-23T15:52:40;4.45;;;2.60;;
47545;SDS011;50104;52.002;4.688;2022-07-23T15:57:41;4.13;;;2.83;;
47545;SDS011;50104;52.002;4.688;2022-07-23T16:02:42;4.07;;;2.90;;
47545;SDS011;50104;52.002;4.688;2022-07-23T16:07:43;7.30;;;6.00;;
47545;SDS011;50104;52.002;4.688;2022-07-23T16:12:43;16.02;;;12.95;;
47545;SDS011;50104;52.002;4.688;2022-07-23T16:17:44;5.57;;;4.05;;
47545;SDS011;50104;52.002;4.688;2022-07-23T16:22:45;4.07;;;3.03;;
47545;SDS011;50104;52.002;4.688;2022-07-23T16:27:46;5.85;;;4.60;;
47545;SDS011;50104;52.002;4.688;2022-07-23T16:32:47;4.50;;;3.10;;
47545;SDS011;50104;52.002;4.688;2022-07-23T16:37:48;5.03;;;3.22;;
47545;SDS011;50104;52.002;4.688;2022-07-23T16:42:49;3.20;;;2.90;;
47545;SDS011;50104;52.002;4.688;2022-07-23T16:47:50;9.05;;;5.93;;
47545;SDS011;50104;52.002;4.688;2022-07-23T16:52:51;6.05;;;5.47;;
47545;SDS011;50104;52.002;4.688;2022-07-23T16:57:52;4.10;;;2.95;;
47545;SDS011;50104;52.002;4.688;2022-07-23T17:02:53;7.22;;;5.28;;
47545;SDS011;50104;52.002;4.688;2022-07-23T17:07:54;5.28;;;3.03;;
47545;SDS011;50104;52.002;4.688;2022-07-23T17:12:55;4.10;;;2.80;;
47545;SDS011;50104;52.002;4.688;2022-07-23T17:17:57;5.80;;;3.30;;
47545;SDS011;50104;52.002;4.688;2022-07-23T17:22:58;3.90;;;2.58;;
47545;SDS011;50104;52.002;4.688;2022-07-23T17:27:59;4.47;;;2.65;;
47545;SDS011;50104;52.002;4.688;2022-07-23T17:33:02;3.67;;;2.78;;
47545;SDS011;50104;52.002;4.688;2022-07-23T17:38:03;4.68;;;2.25;;
47545;SDS011;50104;52.002;4.688;2022-07-23T17:43:04;6.07;;;3.20;;
47545;SDS011;50104;52.002;4.688;2022-07-23T17:48:05;2.47;;;2.20;;
47545;SDS011;50104;52.002;4.688;2022-07-23T17:53:06;4.70;;;2.80;;
47545;SDS011;50104;52.002;4.688;2022-07-23T17:58:07;4.13;;;2.70;;
47545;SDS011;50104;52.002;4.688;2022-07-23T18:03:08;3.55;;;2.70;;
47545;SDS011;50104;52.002;4.688;2022-07-23T18:08:08;4.05;;;2.65;;
47545;SDS011;50104;52.002;4.688;2022-07-23T18:13:09;4.35;;;2.75;;
47545;SDS011;50104;52.002;4.688;2022-07-23T18:18:10;3.10;;;2.80;;
47545;SDS011;50104;52.002;4.688;2022-07-23T18:23:11;4.40;;;2.88;;
47545;SDS011;50104;52.002;4.688;2022-07-23T18:28:12;3.83;;;2.97;;
47545;SDS011;50104;52.002;4.688;2022-07-23T18:33:13;3.53;;;2.65;;
47545;SDS011;50104;52.002;4.688;2022-07-23T18:38:14;3.25;;;2.95;;
47545;SDS011;50104;52.002;4.688;2022-07-23T18:43:17;4.00;;;2.83;;
47545;SDS011;50104;52.002;4.688;2022-07-23T18:48:18;5.68;;;3.55;;
47545;SDS011;50104;52.002;4.688;2022-07-23T18:53:18;5.43;;;3.53;;
47545;SDS011;50104;52.002;4.688;2022-07-23T18:58:19;4.53;;;3.45;;
47545;SDS011;50104;52.002;4.688;2022-07-23T19:03:20;4.07;;;3.50;;
47545;SDS011;50104;52.002;4.688;2022-07-23T19:08:21;5.80;;;3.35;;
47545;SDS011;50104;52.002;4.688;2022-07-23T19:13:22;5.30;;;3.38;;
47545;SDS011;50104;52.002;4.688;2022-07-23T19:18:23;5.15;;;3.10;;
47545;SDS011;50104;52.002;4.688;2022-07-23T19:23:24;6.32;;;3.63;;
47545;SDS011;50104;52.002;4.688;2022-07-23T19:28:25;3.63;;;3.15;;
47545;SDS011;50104;52.002;4.688;2022-07-23T19:33:26;3.40;;;3.08;;
47545;SDS011;50104;52.002;4.688;2022-07-23T19:38:27;5.18;;;3.55;;
47545;SDS011;50104;52.002;4.688;2022-07-23T19:43:28;3.25;;;2.95;;
47545;SDS011;50104;52.002;4.688;2022-07-23T19:48:29;4.57;;;3.80;;
47545;SDS011;50104;52.002;4.688;2022-07-23T19:53:30;7.80;;;3.42;;
47545;SDS011;50104;52.002;4.688;2022-07-23T19:58:31;6.05;;;4.85;;
47545;SDS011;50104;52.002;4.688;2022-07-23T20:03:32;6.70;;;4.50;;
47545;SDS011;50104;52.002;4.688;2022-07-23T20:08:32;5.90;;;5.03;;
47545;SDS011;50104;52.002;4.688;2022-07-23T20:13:33;6.82;;;4.50;;
47545;SDS011;50104;52.002;4.688;2022-07-23T20:18:34;5.90;;;4.82;;
47545;SDS011;50104;52.002;4.688;2022-07-23T20:23:35;6.90;;;4.75;;
47545;SDS011;50104;52.002;4.688;2022-07-23T20:28:36;4.95;;;4.13;;
47545;SDS011;50104;52.002;4.688;2022-07-23T20:33:37;4.97;;;4.18;;
47545;SDS011;50104;52.002;4.688;2022-07-23T20:38:38;6.95;;;5.43;;
47545;SDS011;50104;52.002;4.688;2022-07-23T20:43:38;5.22;;;4.72;;
47545;SDS011;50104;52.002;4.688;2022-07-23T20:48:40;5.68;;;5.18;;
47545;SDS011;50104;52.002;4.688;2022-07-23T20:53:40;7.65;;;6.22;;
47545;SDS011;50104;52.002;4.688;2022-07-23T20:58:42;9.10;;;6.25;;
47545;SDS011;50104;52.002;4.688;2022-07-23T21:03:43;13.85;;;7.57;;
47545;SDS011;50104;52.002;4.688;2022-07-23T21:08:44;10.32;;;6.13;;
47545;SDS011;50104;52.002;4.688;2022-07-23T21:13:45;7.60;;;6.45;;
47545;SDS011;50104;52.002;4.688;2022-07-23T21:18:46;7.18;;;5.45;;
47545;SDS011;50104;52.002;4.688;2022-07-23T21:23:48;9.27;;;7.10;;
47545;SDS011;50104;52.002;4.688;2022-07-23T21:28:51;10.65;;;7.18;;
47545;SDS011;50104;52.002;4.688;2022-07-23T21:33:52;9.10;;;6.18;;
47545;SDS011;50104;52.002;4.688;2022-07-23T21:38:53;7.25;;;5.88;;
47545;SDS011;50104;52.002;4.688;2022-07-23T21:43:55;6.70;;;6.00;;
47545;SDS011;50104;52.002;4.688;2022-07-23T21:48:57;6.57;;;5.60;;
47545;SDS011;50104;52.002;4.688;2022-07-23T21:53:57;7.53;;;6.75;;
47545;SDS011;50104;52.002;4.688;2022-07-23T21:58:58;6.78;;;6.15;;
47545;SDS011;50104;52.002;4.688;2022-07-23T22:03:59;9.90;;;6.82;;
47545;SDS011;50104;52.002;4.688;2022-07-23T22:09:00;7.80;;;6.47;;
47545;SDS011;50104;52.002;4.688;2022-07-23T22:14:01;7.18;;;6.47;;
47545;SDS011;50104;52.002;4.688;2022-07-23T22:19:02;9.27;;;6.90;;
47545;SDS011;50104;52.002;4.688;2022-07-23T22:24:03;8.40;;;6.35;;
47545;SDS011;50104;52.002;4.688;2022-07-23T22:29:04;9.15;;;6.82;;
47545;SDS011;50104;52.002;4.688;2022-07-23T22:34:06;10.05;;;8.98;;
47545;SDS011;50104;52.002;4.688;2022-07-23T22:39:07;9.85;;;8.05;;
47545;SDS011;50104;52.002;4.688;2022-07-23T22:44:08;9.00;;;8.10;;
47545;SDS011;50104;52.002;4.688;2022-07-23T22:49:08;9.45;;;7.30;;
47545;SDS011;50104;52.002;4.688;2022-07-23T22:54:09;9.23;;;8.32;;
47545;SDS011;50104;52.002;4.688;2022-07-23T22:59:10;9.98;;;9.00;;
47545;SDS011;50104;52.002;4.688;2022-07-23T23:04:12;11.43;;;10.32;;
47545;SDS011;50104;52.002;4.688;2022-07-23T23:09:12;12.40;;;10.25;;
47545;SDS011;50104;52.002;4.688;2022-07-23T23:14:14;11.57;;;10.48;;
47545;SDS011;50104;52.002;4.688;2022-07-23T23:19:17;12.05;;;10.88;;
47545;SDS011;50104;52.002;4.688;2022-07-23T23:24:18;12.88;;;11.57;;
47545;SDS011;50104;52.002;4.688;2022-07-23T23:29:19;13.90;;;12.60;;
47545;SDS011;50104;52.002;4.688;2022-07-23T23:34:20;15.02;;;13.13;;
47545;SDS011;50104;52.002;4.688;2022-07-23T23:39:20;14.07;;;12.60;;
47545;SDS011;50104;52.002;4.688;2022-07-23T23:44:21;14.48;;;13.00;;
47545;SDS011;50104;52.002;4.688;2022-07-23T23:49:22;14.88;;;13.30;;
47545;SDS011;50104;52.002;4.688;2022-07-23T23:54:23;18.30;;;14.02;;
47545;SDS011;50104;52.002;4.688;2022-07-23T23:59:24;14.32;;;12.82;;
